sensor_id;sensor_type;location;lat;lon;timestamp;P1;durP1;ratioP1;P2;durP2;ratioP2
68942;SDS011;60852;52.190;4.422;2024-01-10T00:01:32;7.07;;;6.97;;
68942;SDS011;60852;52.190;4.422;2024-01-10T00:03:58;7.14;;;7.00;;
68942;SDS011;60852;52.190;4.422;2024-01-10T00:06:23;6.76;;;6.65;;
68942;SDS011;60852;52.190;4.422;2024-01-10T00:08:49;7.22;;;7.07;;
68942;SDS011;60852;52.190;4.422;2024-01-10T00:11:15;7.17;;;7.06;;
68942;SDS011;60852;52.190;4.422;2024-01-10T00:13:40;7.02;;;6.86;;
68942;SDS011;60852;52.190;4.422;2024-01-10T00:16:06;6.97;;;6.84;;
68942;SDS011;60852;52.190;4.422;2024-01-10T00:18:31;7.06;;;6.98;;
68942;SDS011;60852;52.190;4.422;2024-01-10T00:20:57;7.46;;;7.30;;
68942;SDS011;60852;52.190;4.422;2024-01-10T00:23:23;7.14;;;7.00;;
68942;SDS011;60852;52.190;4.422;2024-01-10T00:25:49;7.60;;;7.47;;
68942;SDS011;60852;52.190;4.422;2024-01-10T00:28:15;7.13;;;7.09;;
68942;SDS011;60852;52.190;4.422;2024-01-10T00:30:44;6.96;;;6.86;;
68942;SDS011;60852;52.190;4.422;2024-01-10T00:33:10;7.34;;;7.18;;
68942;SDS011;60852;52.190;4.422;2024-01-10T00:35:37;7.23;;;7.12;;
68942;SDS011;60852;52.190;4.422;2024-01-10T00:38:03;7.27;;;7.14;;
68942;SDS011;60852;52.190;4.422;2024-01-10T00:40:28;7.74;;;7.57;;
68942;SDS011;60852;52.190;4.422;2024-01-10T00:42:54;7.37;;;7.26;;
68942;SDS011;60852;52.190;4.422;2024-01-10T00:45:19;7.31;;;7.16;;
68942;SDS011;60852;52.190;4.422;2024-01-10T00:47:45;7.37;;;7.28;;
68942;SDS011;60852;52.190;4.422;2024-01-10T00:50:13;7.27;;;7.19;;
68942;SDS011;60852;52.190;4.422;2024-01-10T00:52:38;7.21;;;7.14;;
68942;SDS011;60852;52.190;4.422;2024-01-10T00:55:04;7.52;;;7.39;;
68942;SDS011;60852;52.190;4.422;2024-01-10T00:57:30;7.57;;;7.44;;
68942;SDS011;60852;52.190;4.422;2024-01-10T00:59:55;7.46;;;7.33;;
68942;SDS011;60852;52.190;4.422;2024-01-10T01:02:21;7.61;;;7.46;;
68942;SDS011;60852;52.190;4.422;2024-01-10T01:04:46;7.29;;;7.17;;
68942;SDS011;60852;52.190;4.422;2024-01-10T01:07:11;7.38;;;7.26;;
68942;SDS011;60852;52.190;4.422;2024-01-10T01:09:37;7.78;;;7.68;;
68942;SDS011;60852;52.190;4.422;2024-01-10T01:12:02;7.76;;;7.71;;
68942;SDS011;60852;52.190;4.422;2024-01-10T01:14:28;7.52;;;7.46;;
68942;SDS011;60852;52.190;4.422;2024-01-10T01:16:54;7.16;;;7.06;;
68942;SDS011;60852;52.190;4.422;2024-01-10T01:19:19;7.38;;;7.27;;
68942;SDS011;60852;52.190;4.422;2024-01-10T01:21:45;7.24;;;7.21;;
68942;SDS011;60852;52.190;4.422;2024-01-10T01:24:10;7.80;;;7.72;;
68942;SDS011;60852;52.190;4.422;2024-01-10T01:26:37;7.57;;;7.52;;
68942;SDS011;60852;52.190;4.422;2024-01-10T01:29:02;8.11;;;8.02;;
68942;SDS011;60852;52.190;4.422;2024-01-10T01:31:27;8.22;;;8.14;;
68942;SDS011;60852;52.190;4.422;2024-01-10T01:33:53;8.57;;;8.40;;
68942;SDS011;60852;52.190;4.422;2024-01-10T01:36:18;8.60;;;8.42;;
68942;SDS011;60852;52.190;4.422;2024-01-10T01:38:44;9.04;;;8.87;;
68942;SDS011;60852;52.190;4.422;2024-01-10T01:41:09;9.39;;;9.34;;
68942;SDS011;60852;52.190;4.422;2024-01-10T01:43:35;9.55;;;9.44;;
68942;SDS011;60852;52.190;4.422;2024-01-10T01:46:00;10.20;;;9.98;;
68942;SDS011;60852;52.190;4.422;2024-01-10T01:48:28;10.70;;;10.46;;
68942;SDS011;60852;52.190;4.422;2024-01-10T01:50:56;10.87;;;10.63;;
68942;SDS011;60852;52.190;4.422;2024-01-10T01:53:24;11.12;;;10.82;;
68942;SDS011;60852;52.190;4.422;2024-01-10T01:55:52;11.96;;;11.60;;
68942;SDS011;60852;52.190;4.422;2024-01-10T01:58:18;11.80;;;11.49;;
68942;SDS011;60852;52.190;4.422;2024-01-10T02:00:45;11.47;;;11.43;;
68942;SDS011;60852;52.190;4.422;2024-01-10T02:03:11;11.31;;;11.13;;
68942;SDS011;60852;52.190;4.422;2024-01-10T02:05:37;12.16;;;11.90;;
68942;SDS011;60852;52.190;4.422;2024-01-10T02:08:03;11.81;;;11.60;;
68942;SDS011;60852;52.190;4.422;2024-01-10T02:10:28;12.02;;;11.85;;
68942;SDS011;60852;52.190;4.422;2024-01-10T02:12:54;11.96;;;11.91;;
68942;SDS011;60852;52.190;4.422;2024-01-10T02:15:19;11.53;;;11.52;;
68942;SDS011;60852;52.190;4.422;2024-01-10T02:17:45;12.05;;;11.89;;
68942;SDS011;60852;52.190;4.422;2024-01-10T02:20:11;12.64;;;12.42;;
68942;SDS011;60852;52.190;4.422;2024-01-10T02:22:38;12.78;;;12.46;;
68942;SDS011;60852;52.190;4.422;2024-01-10T02:25:07;12.82;;;12.35;;
68942;SDS011;60852;52.190;4.422;2024-01-10T02:27:34;12.33;;;12.04;;
68942;SDS011;60852;52.190;4.422;2024-01-10T02:30:02;12.71;;;12.36;;
68942;SDS011;60852;52.190;4.422;2024-01-10T02:32:28;12.86;;;12.67;;
68942;SDS011;60852;52.190;4.422;2024-01-10T02:34:54;13.31;;;12.96;;
68942;SDS011;60852;52.190;4.422;2024-01-10T02:37:20;13.21;;;12.81;;
68942;SDS011;60852;52.190;4.422;2024-01-10T02:39:45;12.19;;;11.94;;
68942;SDS011;60852;52.190;4.422;2024-01-10T02:42:11;12.32;;;12.20;;
68942;SDS011;60852;52.190;4.422;2024-01-10T02:44:37;12.42;;;12.27;;
68942;SDS011;60852;52.190;4.422;2024-01-10T02:47:02;13.32;;;13.04;;
68942;SDS011;60852;52.190;4.422;2024-01-10T02:49:28;12.87;;;12.62;;
68942;SDS011;60852;52.190;4.422;2024-01-10T02:51:54;12.96;;;12.73;;
68942;SDS011;60852;52.190;4.422;2024-01-10T02:54:19;13.10;;;12.99;;
68942;SDS011;60852;52.190;4.422;2024-01-10T02:56:44;12.64;;;12.61;;
68942;SDS011;60852;52.190;4.422;2024-01-10T02:59:10;13.18;;;13.07;;
68942;SDS011;60852;52.190;4.422;2024-01-10T03:01:35;13.31;;;13.01;;
68942;SDS011;60852;52.190;4.422;2024-01-10T03:04:01;12.94;;;12.66;;
68942;SDS011;60852;52.190;4.422;2024-01-10T03:06:26;13.25;;;13.02;;
68942;SDS011;60852;52.190;4.422;2024-01-10T03:08:52;13.74;;;13.53;;
68942;SDS011;60852;52.190;4.422;2024-01-10T03:11:17;13.36;;;13.10;;
68942;SDS011;60852;52.190;4.422;2024-01-10T03:13:43;14.52;;;14.05;;
68942;SDS011;60852;52.190;4.422;2024-01-10T03:16:11;14.36;;;14.01;;
68942;SDS011;60852;52.190;4.422;2024-01-10T03:18:37;14.35;;;14.07;;
68942;SDS011;60852;52.190;4.422;2024-01-10T03:21:02;14.54;;;14.51;;
68942;SDS011;60852;52.190;4.422;2024-01-10T03:23:28;14.62;;;14.40;;
68942;SDS011;60852;52.190;4.422;2024-01-10T03:25:53;14.42;;;14.35;;
68942;SDS011;60852;52.190;4.422;2024-01-10T03:28:19;14.64;;;14.53;;
68942;SDS011;60852;52.190;4.422;2024-01-10T03:30:45;14.35;;;14.19;;
68942;SDS011;60852;52.190;4.422;2024-01-10T03:33:10;14.31;;;14.18;;
68942;SDS011;60852;52.190;4.422;2024-01-10T03:35:36;14.55;;;14.31;;
68942;SDS011;60852;52.190;4.422;2024-01-10T03:38:02;14.49;;;14.36;;
68942;SDS011;60852;52.190;4.422;2024-01-10T03:40:27;15.15;;;14.70;;
68942;SDS011;60852;52.190;4.422;2024-01-10T03:42:53;14.63;;;14.39;;
68942;SDS011;60852;52.190;4.422;2024-01-10T03:45:18;15.05;;;14.88;;
68942;SDS011;60852;52.190;4.422;2024-01-10T03:47:46;14.55;;;14.32;;
68942;SDS011;60852;52.190;4.422;2024-01-10T03:50:18;14.49;;;14.31;;
68942;SDS011;60852;52.190;4.422;2024-01-10T03:52:44;15.07;;;14.70;;
68942;SDS011;60852;52.190;4.422;2024-01-10T03:55:14;14.78;;;14.48;;
68942;SDS011;60852;52.190;4.422;2024-01-10T03:57:40;14.77;;;14.48;;
68942;SDS011;60852;52.190;4.422;2024-01-10T04:00:07;14.47;;;14.25;;
68942;SDS011;60852;52.190;4.422;2024-01-10T04:02:33;15.12;;;14.66;;
68942;SDS011;60852;52.190;4.422;2024-01-10T04:04:58;14.10;;;13.83;;
68942;SDS011;60852;52.190;4.422;2024-01-10T04:07:25;14.00;;;13.91;;
68942;SDS011;60852;52.190;4.422;2024-01-10T04:09:52;13.71;;;13.49;;
68942;SDS011;60852;52.190;4.422;2024-01-10T04:12:17;14.26;;;13.95;;
68942;SDS011;60852;52.190;4.422;2024-01-10T04:14:43;14.00;;;13.79;;
68942;SDS011;60852;52.190;4.422;2024-01-10T04:17:08;14.04;;;13.86;;
68942;SDS011;60852;52.190;4.422;2024-01-10T04:19:34;13.66;;;13.52;;
68942;SDS011;60852;52.190;4.422;2024-01-10T04:22:00;14.07;;;13.79;;
68942;SDS011;60852;52.190;4.422;2024-01-10T04:24:25;14.68;;;14.36;;
68942;SDS011;60852;52.190;4.422;2024-01-10T04:26:50;14.87;;;14.49;;
68942;SDS011;60852;52.190;4.422;2024-01-10T04:29:16;14.27;;;13.97;;
68942;SDS011;60852;52.190;4.422;2024-01-10T04:31:42;14.53;;;14.26;;
68942;SDS011;60852;52.190;4.422;2024-01-10T04:34:07;14.09;;;13.83;;
68942;SDS011;60852;52.190;4.422;2024-01-10T04:36:33;15.28;;;14.92;;
68942;SDS011;60852;52.190;4.422;2024-01-10T04:38:58;14.95;;;14.67;;
68942;SDS011;60852;52.190;4.422;2024-01-10T04:41:24;14.23;;;14.14;;
68942;SDS011;60852;52.190;4.422;2024-01-10T04:43:51;15.11;;;15.03;;
68942;SDS011;60852;52.190;4.422;2024-01-10T04:46:16;14.73;;;14.53;;
68942;SDS011;60852;52.190;4.422;2024-01-10T04:48:42;15.16;;;14.91;;
68942;SDS011;60852;52.190;4.422;2024-01-10T04:51:07;14.65;;;14.48;;
68942;SDS011;60852;52.190;4.422;2024-01-10T04:53:32;15.01;;;14.70;;
68942;SDS011;60852;52.190;4.422;2024-01-10T04:55:58;15.08;;;14.81;;
68942;SDS011;60852;52.190;4.422;2024-01-10T04:58:24;15.11;;;14.74;;
68942;SDS011;60852;52.190;4.422;2024-01-10T05:00:49;14.76;;;14.46;;
68942;SDS011;60852;52.190;4.422;2024-01-10T05:03:15;14.58;;;14.33;;
68942;SDS011;60852;52.190;4.422;2024-01-10T05:05:40;14.27;;;14.02;;
68942;SDS011;60852;52.190;4.422;2024-01-10T05:08:06;15.23;;;14.91;;
68942;SDS011;60852;52.190;4.422;2024-01-10T05:10:32;14.27;;;14.04;;
68942;SDS011;60852;52.190;4.422;2024-01-10T05:12:57;13.97;;;13.80;;
68942;SDS011;60852;52.190;4.422;2024-01-10T05:15:23;13.91;;;13.59;;
68942;SDS011;60852;52.190;4.422;2024-01-10T05:17:48;13.66;;;13.45;;
68942;SDS011;60852;52.190;4.422;2024-01-10T05:20:13;13.98;;;13.77;;
68942;SDS011;60852;52.190;4.422;2024-01-10T05:22:39;13.47;;;13.23;;
68942;SDS011;60852;52.190;4.422;2024-01-10T05:25:05;14.06;;;13.73;;
68942;SDS011;60852;52.190;4.422;2024-01-10T05:27:32;13.74;;;13.43;;
68942;SDS011;60852;52.190;4.422;2024-01-10T05:29:57;13.67;;;13.43;;
68942;SDS011;60852;52.190;4.422;2024-01-10T05:32:24;13.20;;;13.07;;
68942;SDS011;60852;52.190;4.422;2024-01-10T05:34:51;13.61;;;13.37;;
68942;SDS011;60852;52.190;4.422;2024-01-10T05:37:17;13.70;;;13.51;;
68942;SDS011;60852;52.190;4.422;2024-01-10T05:39:42;13.71;;;13.52;;
68942;SDS011;60852;52.190;4.422;2024-01-10T05:42:08;14.65;;;14.35;;
68942;SDS011;60852;52.190;4.422;2024-01-10T05:44:33;14.06;;;13.99;;
68942;SDS011;60852;52.190;4.422;2024-01-10T05:46:59;13.97;;;13.82;;
68942;SDS011;60852;52.190;4.422;2024-01-10T05:49:25;13.20;;;13.15;;
68942;SDS011;60852;52.190;4.422;2024-01-10T05:51:50;13.62;;;13.44;;
68942;SDS011;60852;52.190;4.422;2024-01-10T05:54:16;13.58;;;13.35;;
68942;SDS011;60852;52.190;4.422;2024-01-10T05:56:43;13.54;;;13.42;;
68942;SDS011;60852;52.190;4.422;2024-01-10T05:59:09;13.06;;;12.89;;
68942;SDS011;60852;52.190;4.422;2024-01-10T06:01:36;13.71;;;13.49;;
68942;SDS011;60852;52.190;4.422;2024-01-10T06:04:03;13.34;;;13.25;;
68942;SDS011;60852;52.190;4.422;2024-01-10T06:06:31;13.27;;;13.07;;
68942;SDS011;60852;52.190;4.422;2024-01-10T06:08:57;13.36;;;13.16;;
68942;SDS011;60852;52.190;4.422;2024-01-10T06:11:23;13.55;;;13.37;;
68942;SDS011;60852;52.190;4.422;2024-01-10T06:13:48;13.04;;;12.92;;
68942;SDS011;60852;52.190;4.422;2024-01-10T06:16:13;13.95;;;13.68;;
68942;SDS011;60852;52.190;4.422;2024-01-10T06:18:39;13.40;;;13.13;;
68942;SDS011;60852;52.190;4.422;2024-01-10T06:21:05;13.60;;;13.39;;
68942;SDS011;60852;52.190;4.422;2024-01-10T06:23:30;13.84;;;13.51;;
68942;SDS011;60852;52.190;4.422;2024-01-10T06:25:56;13.64;;;13.36;;
68942;SDS011;60852;52.190;4.422;2024-01-10T06:28:21;13.71;;;13.49;;
68942;SDS011;60852;52.190;4.422;2024-01-10T06:30:48;13.50;;;13.33;;
68942;SDS011;60852;52.190;4.422;2024-01-10T06:33:14;13.53;;;13.29;;
68942;SDS011;60852;52.190;4.422;2024-01-10T06:35:40;13.17;;;12.95;;
68942;SDS011;60852;52.190;4.422;2024-01-10T06:38:08;13.30;;;13.17;;
68942;SDS011;60852;52.190;4.422;2024-01-10T06:40:34;12.73;;;12.64;;
68942;SDS011;60852;52.190;4.422;2024-01-10T06:43:00;12.96;;;12.80;;
68942;SDS011;60852;52.190;4.422;2024-01-10T06:45:26;13.42;;;13.25;;
68942;SDS011;60852;52.190;4.422;2024-01-10T06:47:52;13.27;;;13.13;;
68942;SDS011;60852;52.190;4.422;2024-01-10T06:50:17;13.21;;;13.02;;
68942;SDS011;60852;52.190;4.422;2024-01-10T06:52:45;12.98;;;12.71;;
68942;SDS011;60852;52.190;4.422;2024-01-10T06:55:13;13.41;;;13.09;;
68942;SDS011;60852;52.190;4.422;2024-01-10T06:57:39;13.49;;;13.25;;
68942;SDS011;60852;52.190;4.422;2024-01-10T07:00:05;13.31;;;13.23;;
68942;SDS011;60852;52.190;4.422;2024-01-10T07:02:36;13.50;;;13.30;;
68942;SDS011;60852;52.190;4.422;2024-01-10T07:05:02;14.10;;;13.88;;
68942;SDS011;60852;52.190;4.422;2024-01-10T07:07:31;14.26;;;13.92;;
68942;SDS011;60852;52.190;4.422;2024-01-10T07:09:57;14.14;;;13.81;;
68942;SDS011;60852;52.190;4.422;2024-01-10T07:12:22;13.27;;;13.13;;
68942;SDS011;60852;52.190;4.422;2024-01-10T07:14:48;13.63;;;13.38;;
68942;SDS011;60852;52.190;4.422;2024-01-10T07:17:13;13.76;;;13.44;;
68942;SDS011;60852;52.190;4.422;2024-01-10T07:19:38;13.41;;;13.20;;
68942;SDS011;60852;52.190;4.422;2024-01-10T07:22:05;13.52;;;13.18;;
68942;SDS011;60852;52.190;4.422;2024-01-10T07:24:31;12.90;;;12.62;;
68942;SDS011;60852;52.190;4.422;2024-01-10T07:26:56;13.07;;;12.75;;
68942;SDS011;60852;52.190;4.422;2024-01-10T07:29:22;13.31;;;12.83;;
68942;SDS011;60852;52.190;4.422;2024-01-10T07:31:47;12.55;;;12.16;;
68942;SDS011;60852;52.190;4.422;2024-01-10T07:34:13;12.72;;;12.46;;
68942;SDS011;60852;52.190;4.422;2024-01-10T07:36:41;13.00;;;12.68;;
68942;SDS011;60852;52.190;4.422;2024-01-10T07:39:08;12.55;;;12.27;;
68942;SDS011;60852;52.190;4.422;2024-01-10T07:41:33;12.87;;;12.49;;
68942;SDS011;60852;52.190;4.422;2024-01-10T07:43:58;12.35;;;12.13;;
68942;SDS011;60852;52.190;4.422;2024-01-10T07:46:24;12.52;;;12.36;;
68942;SDS011;60852;52.190;4.422;2024-01-10T07:48:52;13.23;;;13.02;;
68942;SDS011;60852;52.190;4.422;2024-01-10T07:51:17;17.92;;;17.52;;
68942;SDS011;60852;52.190;4.422;2024-01-10T07:53:43;19.09;;;18.76;;
68942;SDS011;60852;52.190;4.422;2024-01-10T07:56:08;21.78;;;21.22;;
68942;SDS011;60852;52.190;4.422;2024-01-10T07:58:34;12.20;;;11.99;;
68942;SDS011;60852;52.190;4.422;2024-01-10T08:00:59;11.82;;;11.60;;
68942;SDS011;60852;52.190;4.422;2024-01-10T08:03:24;16.42;;;16.16;;
68942;SDS011;60852;52.190;4.422;2024-01-10T08:05:50;18.14;;;17.89;;
68942;SDS011;60852;52.190;4.422;2024-01-10T08:08:15;13.96;;;13.70;;
68942;SDS011;60852;52.190;4.422;2024-01-10T08:10:42;12.49;;;12.20;;
68942;SDS011;60852;52.190;4.422;2024-01-10T08:13:07;12.30;;;12.11;;
68942;SDS011;60852;52.190;4.422;2024-01-10T08:15:33;16.30;;;15.81;;
68942;SDS011;60852;52.190;4.422;2024-01-10T08:17:59;16.41;;;16.07;;
68942;SDS011;60852;52.190;4.422;2024-01-10T08:20:28;19.47;;;18.99;;
68942;SDS011;60852;52.190;4.422;2024-01-10T08:22:53;11.48;;;11.31;;
68942;SDS011;60852;52.190;4.422;2024-01-10T08:25:19;13.30;;;13.05;;
68942;SDS011;60852;52.190;4.422;2024-01-10T08:27:44;11.85;;;11.56;;
68942;SDS011;60852;52.190;4.422;2024-01-10T08:30:10;12.44;;;12.21;;
68942;SDS011;60852;52.190;4.422;2024-01-10T08:32:36;12.13;;;11.93;;
68942;SDS011;60852;52.190;4.422;2024-01-10T08:35:04;17.93;;;17.65;;
68942;SDS011;60852;52.190;4.422;2024-01-10T08:37:30;12.39;;;12.20;;
68942;SDS011;60852;52.190;4.422;2024-01-10T08:39:56;11.26;;;10.92;;
68942;SDS011;60852;52.190;4.422;2024-01-10T08:42:22;11.53;;;11.34;;
68942;SDS011;60852;52.190;4.422;2024-01-10T08:44:47;11.17;;;11.01;;
68942;SDS011;60852;52.190;4.422;2024-01-10T08:47:13;11.65;;;11.40;;
68942;SDS011;60852;52.190;4.422;2024-01-10T08:49:39;11.40;;;11.18;;
68942;SDS011;60852;52.190;4.422;2024-01-10T08:52:04;11.66;;;11.38;;
68942;SDS011;60852;52.190;4.422;2024-01-10T08:54:30;11.28;;;11.08;;
68942;SDS011;60852;52.190;4.422;2024-01-10T08:56:55;12.17;;;11.94;;
68942;SDS011;60852;52.190;4.422;2024-01-10T08:59:21;11.91;;;11.71;;
68942;SDS011;60852;52.190;4.422;2024-01-10T09:01:47;11.44;;;11.23;;
68942;SDS011;60852;52.190;4.422;2024-01-10T09:04:12;12.10;;;11.90;;
68942;SDS011;60852;52.190;4.422;2024-01-10T09:06:38;14.34;;;14.07;;
68942;SDS011;60852;52.190;4.422;2024-01-10T09:09:03;14.65;;;14.27;;
68942;SDS011;60852;52.190;4.422;2024-01-10T09:11:29;11.46;;;11.29;;
68942;SDS011;60852;52.190;4.422;2024-01-10T09:13:54;12.89;;;12.65;;
68942;SDS011;60852;52.190;4.422;2024-01-10T09:16:20;12.11;;;11.80;;
68942;SDS011;60852;52.190;4.422;2024-01-10T09:18:45;13.39;;;13.20;;
68942;SDS011;60852;52.190;4.422;2024-01-10T09:21:11;18.50;;;17.96;;
68942;SDS011;60852;52.190;4.422;2024-01-10T09:23:37;22.07;;;21.10;;
68942;SDS011;60852;52.190;4.422;2024-01-10T09:26:03;13.32;;;13.02;;
68942;SDS011;60852;52.190;4.422;2024-01-10T09:28:28;15.14;;;14.86;;
68942;SDS011;60852;52.190;4.422;2024-01-10T09:30:54;11.32;;;11.08;;
68942;SDS011;60852;52.190;4.422;2024-01-10T09:33:20;11.63;;;11.39;;
68942;SDS011;60852;52.190;4.422;2024-01-10T09:35:47;11.30;;;11.00;;
68942;SDS011;60852;52.190;4.422;2024-01-10T09:38:13;13.17;;;12.81;;
68942;SDS011;60852;52.190;4.422;2024-01-10T09:40:38;13.40;;;13.09;;
68942;SDS011;60852;52.190;4.422;2024-01-10T09:43:04;11.16;;;11.00;;
68942;SDS011;60852;52.190;4.422;2024-01-10T09:45:33;14.35;;;13.99;;
68942;SDS011;60852;52.190;4.422;2024-01-10T09:48:00;10.49;;;10.39;;
68942;SDS011;60852;52.190;4.422;2024-01-10T09:50:26;10.81;;;10.70;;
68942;SDS011;60852;52.190;4.422;2024-01-10T09:53:04;10.79;;;10.59;;
68942;SDS011;60852;52.190;4.422;2024-01-10T09:55:34;11.02;;;10.86;;
68942;SDS011;60852;52.190;4.422;2024-01-10T09:58:07;10.77;;;10.65;;
68942;SDS011;60852;52.190;4.422;2024-01-10T10:00:36;10.75;;;10.57;;
68942;SDS011;60852;52.190;4.422;2024-01-10T10:03:05;11.34;;;11.23;;
68942;SDS011;60852;52.190;4.422;2024-01-10T10:05:34;14.57;;;14.44;;
68942;SDS011;60852;52.190;4.422;2024-01-10T10:07:59;15.97;;;15.59;;
68942;SDS011;60852;52.190;4.422;2024-01-10T10:10:25;29.72;;;28.44;;
68942;SDS011;60852;52.190;4.422;2024-01-10T10:12:53;43.87;;;41.27;;
68942;SDS011;60852;52.190;4.422;2024-01-10T10:15:19;18.71;;;17.85;;
68942;SDS011;60852;52.190;4.422;2024-01-10T10:17:51;14.04;;;13.74;;
68942;SDS011;60852;52.190;4.422;2024-01-10T10:20:22;14.96;;;14.64;;
68942;SDS011;60852;52.190;4.422;2024-01-10T10:25:27;22.24;;;21.74;;
68942;SDS011;60852;52.190;4.422;2024-01-10T10:27:55;13.57;;;13.14;;
68942;SDS011;60852;52.190;4.422;2024-01-10T10:30:21;11.89;;;11.67;;
68942;SDS011;60852;52.190;4.422;2024-01-10T10:32:47;12.25;;;11.96;;
68942;SDS011;60852;52.190;4.422;2024-01-10T10:35:13;10.54;;;10.37;;
68942;SDS011;60852;52.190;4.422;2024-01-10T10:37:38;10.77;;;10.58;;
68942;SDS011;60852;52.190;4.422;2024-01-10T10:40:04;13.23;;;12.85;;
68942;SDS011;60852;52.190;4.422;2024-01-10T10:42:31;11.36;;;11.13;;
68942;SDS011;60852;52.190;4.422;2024-01-10T10:44:57;12.39;;;12.23;;
68942;SDS011;60852;52.190;4.422;2024-01-10T10:47:30;12.05;;;11.83;;
68942;SDS011;60852;52.190;4.422;2024-01-10T10:50:03;11.71;;;11.59;;
68942;SDS011;60852;52.190;4.422;2024-01-10T10:52:30;11.71;;;11.56;;
68942;SDS011;60852;52.190;4.422;2024-01-10T10:54:56;12.00;;;11.81;;
68942;SDS011;60852;52.190;4.422;2024-01-10T10:57:27;11.70;;;11.36;;
68942;SDS011;60852;52.190;4.422;2024-01-10T10:59:53;11.92;;;11.76;;
68942;SDS011;60852;52.190;4.422;2024-01-10T11:02:21;12.08;;;11.86;;
68942;SDS011;60852;52.190;4.422;2024-01-10T11:04:48;11.24;;;11.09;;
68942;SDS011;60852;52.190;4.422;2024-01-10T11:07:15;11.15;;;11.08;;
68942;SDS011;60852;52.190;4.422;2024-01-10T11:09:40;11.70;;;11.49;;
68942;SDS011;60852;52.190;4.422;2024-01-10T11:20:32;12.02;;;11.90;;
68942;SDS011;60852;52.190;4.422;2024-01-10T11:26:06;12.63;;;12.43;;
68942;SDS011;60852;52.190;4.422;2024-01-10T11:28:32;12.31;;;12.21;;
68942;SDS011;60852;52.190;4.422;2024-01-10T11:30:58;12.25;;;12.04;;
68942;SDS011;60852;52.190;4.422;2024-01-10T11:33:30;12.52;;;12.22;;
68942;SDS011;60852;52.190;4.422;2024-01-10T11:36:11;13.20;;;13.03;;
68942;SDS011;60852;52.190;4.422;2024-01-10T11:41:30;13.33;;;13.12;;
68942;SDS011;60852;52.190;4.422;2024-01-10T11:46:38;14.19;;;13.91;;
68942;SDS011;60852;52.190;4.422;2024-01-10T11:49:11;15.61;;;15.31;;
68942;SDS011;60852;52.190;4.422;2024-01-10T11:51:47;13.74;;;13.52;;
68942;SDS011;60852;52.190;4.422;2024-01-10T11:59:44;14.36;;;14.07;;
68942;SDS011;60852;52.190;4.422;2024-01-10T12:02:11;16.53;;;16.05;;
68942;SDS011;60852;52.190;4.422;2024-01-10T12:04:37;13.44;;;13.12;;
68942;SDS011;60852;52.190;4.422;2024-01-10T12:07:03;13.24;;;12.96;;
68942;SDS011;60852;52.190;4.422;2024-01-10T12:09:32;13.36;;;13.06;;
68942;SDS011;60852;52.190;4.422;2024-01-10T12:11:58;13.71;;;13.51;;
68942;SDS011;60852;52.190;4.422;2024-01-10T12:14:23;14.20;;;13.98;;
68942;SDS011;60852;52.190;4.422;2024-01-10T12:16:53;14.04;;;13.78;;
68942;SDS011;60852;52.190;4.422;2024-01-10T12:19:18;13.17;;;12.94;;
68942;SDS011;60852;52.190;4.422;2024-01-10T12:21:44;14.12;;;13.94;;
68942;SDS011;60852;52.190;4.422;2024-01-10T12:24:09;14.01;;;13.92;;
68942;SDS011;60852;52.190;4.422;2024-01-10T12:26:35;13.73;;;13.48;;
68942;SDS011;60852;52.190;4.422;2024-01-10T12:29:01;14.09;;;13.79;;
68942;SDS011;60852;52.190;4.422;2024-01-10T12:31:29;13.88;;;13.65;;
68942;SDS011;60852;52.190;4.422;2024-01-10T12:33:56;13.50;;;13.24;;
68942;SDS011;60852;52.190;4.422;2024-01-10T12:36:22;13.34;;;13.10;;
68942;SDS011;60852;52.190;4.422;2024-01-10T12:38:47;14.06;;;13.71;;
68942;SDS011;60852;52.190;4.422;2024-01-10T12:41:16;13.14;;;12.88;;
68942;SDS011;60852;52.190;4.422;2024-01-10T12:43:43;13.74;;;13.51;;
68942;SDS011;60852;52.190;4.422;2024-01-10T12:46:25;13.83;;;13.61;;
68942;SDS011;60852;52.190;4.422;2024-01-10T12:49:00;13.63;;;13.36;;
68942;SDS011;60852;52.190;4.422;2024-01-10T12:51:28;14.00;;;13.73;;
68942;SDS011;60852;52.190;4.422;2024-01-10T12:53:55;13.80;;;13.60;;
68942;SDS011;60852;52.190;4.422;2024-01-10T12:56:21;13.54;;;13.30;;
68942;SDS011;60852;52.190;4.422;2024-01-10T12:58:47;13.84;;;13.47;;
68942;SDS011;60852;52.190;4.422;2024-01-10T13:01:12;14.11;;;13.82;;
68942;SDS011;60852;52.190;4.422;2024-01-10T13:03:38;14.07;;;13.87;;
68942;SDS011;60852;52.190;4.422;2024-01-10T13:06:05;13.98;;;13.77;;
68942;SDS011;60852;52.190;4.422;2024-01-10T13:08:30;14.85;;;14.58;;
68942;SDS011;60852;52.190;4.422;2024-01-10T13:10:57;14.78;;;14.55;;
68942;SDS011;60852;52.190;4.422;2024-01-10T13:13:25;15.62;;;15.37;;
68942;SDS011;60852;52.190;4.422;2024-01-10T13:15:50;16.07;;;15.64;;
68942;SDS011;60852;52.190;4.422;2024-01-10T13:18:16;15.00;;;14.62;;
68942;SDS011;60852;52.190;4.422;2024-01-10T13:20:43;14.91;;;14.57;;
68942;SDS011;60852;52.190;4.422;2024-01-10T13:23:09;17.73;;;17.54;;
68942;SDS011;60852;52.190;4.422;2024-01-10T13:25:35;17.89;;;17.70;;
68942;SDS011;60852;52.190;4.422;2024-01-10T13:28:05;17.49;;;17.09;;
68942;SDS011;60852;52.190;4.422;2024-01-10T13:30:30;14.15;;;13.93;;
68942;SDS011;60852;52.190;4.422;2024-01-10T13:32:56;16.15;;;15.85;;
68942;SDS011;60852;52.190;4.422;2024-01-10T13:35:23;17.07;;;16.83;;
68942;SDS011;60852;52.190;4.422;2024-01-10T13:37:49;14.86;;;14.67;;
68942;SDS011;60852;52.190;4.422;2024-01-10T13:40:14;16.14;;;15.83;;
68942;SDS011;60852;52.190;4.422;2024-01-10T13:42:41;14.82;;;14.65;;
68942;SDS011;60852;52.190;4.422;2024-01-10T13:45:08;14.77;;;14.57;;
68942;SDS011;60852;52.190;4.422;2024-01-10T13:47:38;14.43;;;14.41;;
68942;SDS011;60852;52.190;4.422;2024-01-10T13:50:04;16.67;;;16.52;;
68942;SDS011;60852;52.190;4.422;2024-01-10T13:52:31;22.89;;;22.47;;
68942;SDS011;60852;52.190;4.422;2024-01-10T13:54:57;42.38;;;40.76;;
68942;SDS011;60852;52.190;4.422;2024-01-10T13:57:23;44.07;;;42.97;;
68942;SDS011;60852;52.190;4.422;2024-01-10T13:59:49;16.50;;;16.31;;
68942;SDS011;60852;52.190;4.422;2024-01-10T14:02:14;18.04;;;17.87;;
68942;SDS011;60852;52.190;4.422;2024-01-10T14:04:41;16.33;;;16.17;;
68942;SDS011;60852;52.190;4.422;2024-01-10T14:07:07;15.63;;;15.40;;
68942;SDS011;60852;52.190;4.422;2024-01-10T14:09:32;15.36;;;15.19;;
68942;SDS011;60852;52.190;4.422;2024-01-10T14:11:57;16.13;;;15.86;;
68942;SDS011;60852;52.190;4.422;2024-01-10T14:14:23;15.26;;;15.23;;
68942;SDS011;60852;52.190;4.422;2024-01-10T14:16:48;15.54;;;15.48;;
68942;SDS011;60852;52.190;4.422;2024-01-10T14:19:14;14.71;;;14.68;;
68942;SDS011;60852;52.190;4.422;2024-01-10T14:21:42;15.57;;;15.41;;
68942;SDS011;60852;52.190;4.422;2024-01-10T14:24:08;16.49;;;16.31;;
68942;SDS011;60852;52.190;4.422;2024-01-10T14:26:33;16.13;;;15.99;;
68942;SDS011;60852;52.190;4.422;2024-01-10T14:29:00;15.11;;;14.92;;
68942;SDS011;60852;52.190;4.422;2024-01-10T14:31:26;14.99;;;14.76;;
68942;SDS011;60852;52.190;4.422;2024-01-10T14:33:52;16.38;;;16.15;;
68942;SDS011;60852;52.190;4.422;2024-01-10T14:36:18;15.23;;;15.04;;
68942;SDS011;60852;52.190;4.422;2024-01-10T14:38:44;14.56;;;14.44;;
68942;SDS011;60852;52.190;4.422;2024-01-10T14:41:09;14.69;;;14.45;;
68942;SDS011;60852;52.190;4.422;2024-01-10T14:43:36;15.39;;;15.06;;
68942;SDS011;60852;52.190;4.422;2024-01-10T14:46:03;14.78;;;14.54;;